sensor_id;sensor_type;location;lat;lon;timestamp;pressure;altitude;pressure_sealevel;temperature;humidity
13241;BME280;6687;47.790;7.322;2023-04-24T05:24:22;98260.75;;;13.24;75.07
13241;BME280;6687;47.790;7.322;2023-04-24T05:26:49;98273.66;;;13.28;74.50
13241;BME280;6687;47.790;7.322;2023-04-24T05:29:16;98273.63;;;13.31;74.33
13241;BME280;6687;47.790;7.322;2023-04-24T05:31:44;98282.38;;;13.26;73.83
13241;BME280;6687;47.790;7.322;2023-04-24T05:34:11;98291.94;;;13.25;74.39
13241;BME280;6687;47.790;7.322;2023-04-24T05:36:37;98296.53;;;13.56;73.26
13241;BME280;6687;47.790;7.322;2023-04-24T05:39:04;98300.91;;;13.54;72.60
13241;BME280;6687;47.790;7.322;2023-04-24T05:41:32;98315.78;;;13.49;73.39
13241;BME280;6687;47.790;7.322;2023-04-24T05:43:59;98318.94;;;13.65;72.37
13241;BME280;6687;47.790;7.322;2023-04-24T05:46:26;98330.75;;;13.38;73.64
13241;BME280;6687;47.790;7.322;2023-04-24T05:48:52;98343.03;;;13.28;74.94
13241;BME280;6687;47.790;7.322;2023-04-24T05:51:19;98337.66;;;12.90;76.76
13241;BME280;6687;47.790;7.322;2023-04-24T05:53:46;98341.09;;;12.92;78.81
13241;BME280;6687;47.790;7.322;2023-04-24T05:56:13;98345.13;;;13.09;77.51
13241;BME280;6687;47.790;7.322;2023-04-24T05:58:41;98342.59;;;13.06;77.38
13241;BME280;6687;47.790;7.322;2023-04-24T06:01:08;98350.88;;;12.78;77.63
13241;BME280;6687;47.790;7.322;2023-04-24T06:03:34;98346.13;;;13.02;77.33
13241;BME280;6687;47.790;7.322;2023-04-24T06:06:01;98349.28;;;13.19;75.45
13241;BME280;6687;47.790;7.322;2023-04-24T06:08:28;98350.03;;;13.24;75.06
13241;BME280;6687;47.790;7.322;2023-04-24T06:10:55;98359.25;;;13.44;73.95
13241;BME280;6687;47.790;7.322;2023-04-24T06:13:21;98360.19;;;13.40;73.64
13241;BME280;6687;47.790;7.322;2023-04-24T06:15:49;98358.44;;;13.40;73.32
13241;BME280;6687;47.790;7.322;2023-04-24T06:18:16;98361.41;;;13.67;72.35
13241;BME280;6687;47.790;7.322;2023-04-24T06:20:43;98360.59;;;13.63;71.96
13241;BME280;6687;47.790;7.322;2023-04-24T06:23:10;98358.38;;;13.87;70.72
13241;BME280;6687;47.790;7.322;2023-04-24T06:25:37;98363.47;;;13.93;70.15
13241;BME280;6687;47.790;7.322;2023-04-24T06:28:04;98364.09;;;13.61;70.61
13241;BME280;6687;47.790;7.322;2023-04-24T06:30:31;98369.38;;;13.59;71.21
13241;BME280;6687;47.790;7.322;2023-04-24T06:32:59;98370.22;;;13.60;71.14
13241;BME280;6687;47.790;7.322;2023-04-24T06:35:26;98378.03;;;13.58;70.11
13241;BME280;6687;47.790;7.322;2023-04-24T06:37:52;98374.97;;;13.38;70.80
13241;BME280;6687;47.790;7.322;2023-04-24T06:40:21;98376.69;;;13.39;70.79
13241;BME280;6687;47.790;7.322;2023-04-24T06:42:48;98378.69;;;13.71;70.05
13241;BME280;6687;47.790;7.322;2023-04-24T06:45:14;98379.53;;;13.71;70.26
13241;BME280;6687;47.790;7.322;2023-04-24T06:47:41;98382.38;;;14.01;69.43
13241;BME280;6687;47.790;7.322;2023-04-24T06:50:10;98384.88;;;14.06;69.28
13241;BME280;6687;47.790;7.322;2023-04-24T06:52:37;98394.84;;;13.87;69.33
13241;BME280;6687;47.790;7.322;2023-04-24T06:55:04;98391.16;;;13.97;69.67
13241;BME280;6687;47.790;7.322;2023-04-24T06:57:31;98401.16;;;14.16;68.89
13241;BME280;6687;47.790;7.322;2023-04-24T06:59:58;98411.47;;;14.22;68.85
13241;BME280;6687;47.790;7.322;2023-04-24T07:02:25;98414.59;;;14.36;68.56
13241;BME280;6687;47.790;7.322;2023-04-24T07:04:51;98414.06;;;14.22;68.70
13241;BME280;6687;47.790;7.322;2023-04-24T07:07:19;98424.97;;;14.39;67.70
13241;BME280;6687;47.790;7.322;2023-04-24T07:09:46;98418.25;;;14.29;67.52
13241;BME280;6687;47.790;7.322;2023-04-24T07:12:13;98422.66;;;14.66;66.92
13241;BME280;6687;47.790;7.322;2023-04-24T07:14:42;98424.97;;;14.39;66.24
13241;BME280;6687;47.790;7.322;2023-04-24T07:17:09;98420.44;;;14.47;66.13
13241;BME280;6687;47.790;7.322;2023-04-24T07:19:35;98421.16;;;14.15;64.20
13241;BME280;6687;47.790;7.322;2023-04-24T07:22:02;98413.56;;;14.45;65.08
13241;BME280;6687;47.790;7.322;2023-04-24T07:24:31;98420.03;;;14.28;63.95
13241;BME280;6687;47.790;7.322;2023-04-24T07:26:58;98426.44;;;14.52;65.61
13241;BME280;6687;47.790;7.322;2023-04-24T07:29:26;98419.16;;;14.26;61.27
13241;BME280;6687;47.790;7.322;2023-04-24T07:31:53;98429.19;;;14.04;61.79
13241;BME280;6687;47.790;7.322;2023-04-24T07:34:20;98426.69;;;14.40;62.60
13241;BME280;6687;47.790;7.322;2023-04-24T07:36:46;98428.69;;;14.29;60.60
13241;BME280;6687;47.790;7.322;2023-04-24T07:39:13;98439.03;;;14.32;60.24
13241;BME280;6687;47.790;7.322;2023-04-24T07:41:41;98439.44;;;14.13;61.82
13241;BME280;6687;47.790;7.322;2023-04-24T07:44:08;98434.47;;;14.42;59.97
13241;BME280;6687;47.790;7.322;2023-04-24T07:46:35;98440.75;;;14.33;58.86
13241;BME280;6687;47.790;7.322;2023-04-24T07:49:02;98447.47;;;14.43;59.04
13241;BME280;6687;47.790;7.322;2023-04-24T07:51:29;98449.13;;;14.47;57.55
13241;BME280;6687;47.790;7.322;2023-04-24T07:53:57;98447.41;;;14.06;55.85
13241;BME280;6687;47.790;7.322;2023-04-24T07:56:24;98450.25;;;14.36;54.42
13241;BME280;6687;47.790;7.322;2023-04-24T07:58:52;98454.66;;;14.32;54.98
13241;BME280;6687;47.790;7.322;2023-04-24T08:01:19;98462.41;;;14.37;52.79
13241;BME280;6687;47.790;7.322;2023-04-24T08:03:46;98464.34;;;14.67;54.08
13241;BME280;6687;47.790;7.322;2023-04-24T08:06:13;98471.22;;;14.71;53.74
13241;BME280;6687;47.790;7.322;2023-04-24T08:08:39;98481.13;;;14.54;52.58
13241;BME280;6687;47.790;7.322;2023-04-24T08:11:06;98484.25;;;15.09;53.60
13241;BME280;6687;47.790;7.322;2023-04-24T08:13:33;98489.97;;;15.23;54.14
13241;BME280;6687;47.790;7.322;2023-04-24T08:16:01;98489.56;;;15.40;56.69
13241;BME280;6687;47.790;7.322;2023-04-24T08:18:27;98492.22;;;15.71;55.71
13241;BME280;6687;47.790;7.322;2023-04-24T08:20:54;98499.19;;;15.74;56.04
13241;BME280;6687;47.790;7.322;2023-04-24T08:23:21;98508.38;;;15.53;56.70
13241;BME280;6687;47.790;7.322;2023-04-24T08:25:48;98497.88;;;15.56;52.23
13241;BME280;6687;47.790;7.322;2023-04-24T08:28:15;98505.09;;;15.81;54.54
13241;BME280;6687;47.790;7.322;2023-04-24T08:30:45;98511.94;;;15.85;53.61
13241;BME280;6687;47.790;7.322;2023-04-24T08:33:13;98507.06;;;15.73;52.62
13241;BME280;6687;47.790;7.322;2023-04-24T08:35:40;98510.16;;;15.87;52.74
13241;BME280;6687;47.790;7.322;2023-04-24T08:38:07;98517.16;;;16.18;55.39
13241;BME280;6687;47.790;7.322;2023-04-24T08:40:34;98515.97;;;15.97;52.79
13241;BME280;6687;47.790;7.322;2023-04-24T08:43:01;98507.91;;;16.06;54.11
13241;BME280;6687;47.790;7.322;2023-04-24T08:45:28;98518.19;;;16.12;52.03
13241;BME280;6687;47.790;7.322;2023-04-24T08:47:57;98520.59;;;16.20;52.84
13241;BME280;6687;47.790;7.322;2023-04-24T08:50:26;98519.00;;;16.45;51.98
13241;BME280;6687;47.790;7.322;2023-04-24T08:52:53;98517.59;;;16.34;51.80
13241;BME280;6687;47.790;7.322;2023-04-24T08:55:20;98516.81;;;16.30;50.25
13241;BME280;6687;47.790;7.322;2023-04-24T08:57:50;98533.34;;;16.60;48.93
13241;BME280;6687;47.790;7.322;2023-04-24T09:00:19;98521.41;;;16.22;45.47
13241;BME280;6687;47.790;7.322;2023-04-24T09:02:47;98535.00;;;16.33;47.35
13241;BME280;6687;47.790;7.322;2023-04-24T09:05:16;98528.59;;;16.14;43.88
13241;BME280;6687;47.790;7.322;2023-04-24T09:07:45;98532.22;;;15.75;43.63
13241;BME280;6687;47.790;7.322;2023-04-24T09:10:13;98539.00;;;15.48;43.38
13241;BME280;6687;47.790;7.322;2023-04-24T09:12:40;98540.69;;;15.49;42.57
13241;BME280;6687;47.790;7.322;2023-04-24T09:15:08;98536.03;;;15.62;42.78
13241;BME280;6687;47.790;7.322;2023-04-24T09:17:35;98539.19;;;15.40;42.35
13241;BME280;6687;47.790;7.322;2023-04-24T09:20:02;98541.81;;;15.75;42.37
13241;BME280;6687;47.790;7.322;2023-04-24T09:22:29;98549.44;;;15.12;42.10
13241;BME280;6687;47.790;7.322;2023-04-24T09:25:07;98556.56;;;14.65;42.28
13241;BME280;6687;47.790;7.322;2023-04-24T09:27:41;98552.84;;;15.14;42.57
13241;BME280;6687;47.790;7.322;2023-04-24T09:30:09;98550.03;;;15.22;42.27
13241;BME280;6687;47.790;7.322;2023-04-24T09:32:36;98550.63;;;15.35;42.30
13241;BME280;6687;47.790;7.322;2023-04-24T09:35:09;98550.28;;;15.48;42.44
13241;BME280;6687;47.790;7.322;2023-04-24T09:37:37;98553.50;;;14.43;43.10
13241;BME280;6687;47.790;7.322;2023-04-24T09:40:12;98552.41;;;15.32;41.68
13241;BME280;6687;47.790;7.322;2023-04-24T09:42:39;98561.09;;;14.96;42.55
13241;BME280;6687;47.790;7.322;2023-04-24T09:45:08;98562.34;;;15.18;41.82
13241;BME280;6687;47.790;7.322;2023-04-24T09:47:36;98565.88;;;14.77;42.21
13241;BME280;6687;47.790;7.322;2023-04-24T09:50:10;98569.06;;;14.46;42.41
13241;BME280;6687;47.790;7.322;2023-04-24T09:52:40;98555.97;;;14.91;42.54
13241;BME280;6687;47.790;7.322;2023-04-24T09:55:13;98562.81;;;15.70;42.08
13241;BME280;6687;47.790;7.322;2023-04-24T09:57:49;98557.75;;;15.98;41.00
13241;BME280;6687;47.790;7.322;2023-04-24T10:00:22;98556.03;;;16.30;41.91
13241;BME280;6687;47.790;7.322;2023-04-24T10:02:54;98562.38;;;16.51;41.80
13241;BME280;6687;47.790;7.322;2023-04-24T10:05:27;98566.81;;;17.08;41.10
13241;BME280;6687;47.790;7.322;2023-04-24T10:07:59;98565.41;;;16.98;41.26
13241;BME280;6687;47.790;7.322;2023-04-24T10:10:28;98567.44;;;16.88;40.49
13241;BME280;6687;47.790;7.322;2023-04-24T10:12:55;98568.34;;;16.87;40.76
13241;BME280;6687;47.790;7.322;2023-04-24T10:15:21;98569.53;;;16.76;40.47
13241;BME280;6687;47.790;7.322;2023-04-24T10:17:49;98578.16;;;16.49;39.83
13241;BME280;6687;47.790;7.322;2023-04-24T10:20:20;98579.06;;;17.08;40.11
13241;BME280;6687;47.790;7.322;2023-04-24T10:22:48;98583.00;;;17.49;41.65
13241;BME280;6687;47.790;7.322;2023-04-24T10:25:17;98586.91;;;17.08;41.06
13241;BME280;6687;47.790;7.322;2023-04-24T10:27:47;98589.50;;;17.09;43.60
13241;BME280;6687;47.790;7.322;2023-04-24T10:30:14;98596.28;;;16.56;42.13
13241;BME280;6687;47.790;7.322;2023-04-24T10:32:41;98590.59;;;16.41;42.75
13241;BME280;6687;47.790;7.322;2023-04-24T10:35:08;98594.81;;;17.06;42.90
13241;BME280;6687;47.790;7.322;2023-04-24T10:37:37;98583.84;;;17.50;41.93
13241;BME280;6687;47.790;7.322;2023-04-24T10:40:06;98590.91;;;16.92;41.11
13241;BME280;6687;47.790;7.322;2023-04-24T10:42:33;98596.75;;;17.00;41.72
13241;BME280;6687;47.790;7.322;2023-04-24T10:45:06;98594.72;;;16.81;41.17
13241;BME280;6687;47.790;7.322;2023-04-24T10:47:39;98594.63;;;17.41;42.90
13241;BME280;6687;47.790;7.322;2023-04-24T10:50:08;98603.19;;;16.89;41.53
13241;BME280;6687;47.790;7.322;2023-04-24T10:52:45;98596.22;;;16.88;41.49
13241;BME280;6687;47.790;7.322;2023-04-24T10:55:12;98597.94;;;16.89;40.74
13241;BME280;6687;47.790;7.322;2023-04-24T10:57:40;98606.81;;;17.42;43.36
13241;BME280;6687;47.790;7.322;2023-04-24T11:00:28;98599.97;;;17.38;41.40
13241;BME280;6687;47.790;7.322;2023-04-24T11:02:55;98605.19;;;17.38;40.92
13241;BME280;6687;47.790;7.322;2023-04-24T11:05:23;98605.69;;;18.04;44.02
13241;BME280;6687;47.790;7.322;2023-04-24T11:08:13;98606.03;;;18.18;42.92
13241;BME280;6687;47.790;7.322;2023-04-24T11:10:44;98609.56;;;18.19;42.68
13241;BME280;6687;47.790;7.322;2023-04-24T11:13:14;98611.16;;;17.69;40.94
13241;BME280;6687;47.790;7.322;2023-04-24T11:15:42;98622.44;;;18.25;44.99
13241;BME280;6687;47.790;7.322;2023-04-24T11:18:13;98615.63;;;18.19;41.90
13241;BME280;6687;47.790;7.322;2023-04-24T11:20:42;98619.16;;;18.18;41.65
13241;BME280;6687;47.790;7.322;2023-04-24T11:23:12;98611.03;;;18.26;44.73
13241;BME280;6687;47.790;7.322;2023-04-24T11:25:39;98611.44;;;17.88;40.97
13241;BME280;6687;47.790;7.322;2023-04-24T11:28:05;98602.13;;;18.30;45.85
13241;BME280;6687;47.790;7.322;2023-04-24T11:30:32;98601.13;;;18.34;41.21
13241;BME280;6687;47.790;7.322;2023-04-24T11:33:05;98596.16;;;18.99;44.61
13241;BME280;6687;47.790;7.322;2023-04-24T11:35:35;98599.50;;;19.48;43.29
13241;BME280;6687;47.790;7.322;2023-04-24T11:38:06;98587.88;;;19.32;40.52
13241;BME280;6687;47.790;7.322;2023-04-24T11:40:33;98588.59;;;19.57;42.86
13241;BME280;6687;47.790;7.322;2023-04-24T11:43:00;98584.13;;;19.59;41.76
13241;BME280;6687;47.790;7.322;2023-04-24T11:45:28;98582.75;;;19.73;41.78
13241;BME280;6687;47.790;7.322;2023-04-24T11:47:56;98580.00;;;19.96;38.75
13241;BME280;6687;47.790;7.322;2023-04-24T11:50:25;98583.16;;;19.84;38.01
13241;BME280;6687;47.790;7.322;2023-04-24T11:52:53;98581.19;;;20.10;43.45
13241;BME280;6687;47.790;7.322;2023-04-24T11:55:25;98577.78;;;20.08;40.71
13241;BME280;6687;47.790;7.322;2023-04-24T11:57:54;98581.31;;;20.06;40.07
13241;BME280;6687;47.790;7.322;2023-04-24T12:00:24;98582.00;;;19.47;37.83
13241;BME280;6687;47.790;7.322;2023-04-24T12:02:52;98573.03;;;19.95;41.15
13241;BME280;6687;47.790;7.322;2023-04-24T12:05:31;98585.09;;;20.40;39.75
13241;BME280;6687;47.790;7.322;2023-04-24T12:07:59;98581.97;;;20.32;38.80
13241;BME280;6687;47.790;7.322;2023-04-24T12:10:27;98569.63;;;20.74;39.18
13241;BME280;6687;47.790;7.322;2023-04-24T12:12:56;98575.78;;;21.30;40.11
13241;BME280;6687;47.790;7.322;2023-04-24T12:15:23;98584.34;;;20.97;41.66
13241;BME280;6687;47.790;7.322;2023-04-24T12:17:51;98578.09;;;21.36;41.73
13241;BME280;6687;47.790;7.322;2023-04-24T12:20:24;98575.38;;;21.01;42.00
13241;BME280;6687;47.790;7.322;2023-04-24T12:22:54;98581.81;;;21.13;39.74
13241;BME280;6687;47.790;7.322;2023-04-24T12:25:22;98566.91;;;21.31;38.42
13241;BME280;6687;47.790;7.322;2023-04-24T12:27:53;98579.19;;;20.75;36.94
13241;BME280;6687;47.790;7.322;2023-04-24T12:30:20;98583.41;;;20.39;36.12
13241;BME280;6687;47.790;7.322;2023-04-24T12:32:48;98588.16;;;19.90;37.35
13241;BME280;6687;47.790;7.322;2023-04-24T12:35:19;98585.66;;;20.28;38.71
13241;BME280;6687;47.790;7.322;2023-04-24T12:37:46;98586.38;;;20.32;37.44
13241;BME280;6687;47.790;7.322;2023-04-24T12:40:15;98595.25;;;20.50;38.18
13241;BME280;6687;47.790;7.322;2023-04-24T12:42:43;98593.44;;;21.09;41.17
13241;BME280;6687;47.790;7.322;2023-04-24T12:45:10;98590.72;;;20.33;37.60
13241;BME280;6687;47.790;7.322;2023-04-24T12:47:38;98595.91;;;20.34;42.50
13241;BME280;6687;47.790;7.322;2023-04-24T12:50:06;98590.47;;;20.18;38.40
13241;BME280;6687;47.790;7.322;2023-04-24T12:52:33;98589.59;;;19.97;37.44
13241;BME280;6687;47.790;7.322;2023-04-24T12:55:01;98591.47;;;20.16;38.79
13241;BME280;6687;47.790;7.322;2023-04-24T12:57:30;98593.16;;;20.37;38.84
13241;BME280;6687;47.790;7.322;2023-04-24T12:59:58;98589.53;;;20.79;38.50
13241;BME280;6687;47.790;7.322;2023-04-24T13:02:27;98586.47;;;20.89;38.01
13241;BME280;6687;47.790;7.322;2023-04-24T13:04:54;98586.84;;;21.36;39.35
13241;BME280;6687;47.790;7.322;2023-04-24T13:07:21;98583.25;;;20.63;36.33
13241;BME280;6687;47.790;7.322;2023-04-24T13:09:48;98584.19;;;20.81;36.64
13241;BME280;6687;47.790;7.322;2023-04-24T13:12:16;98590.25;;;20.43;37.63
13241;BME280;6687;47.790;7.322;2023-04-24T13:14:44;98600.56;;;19.86;37.17
13241;BME280;6687;47.790;7.322;2023-04-24T13:17:11;98594.34;;;20.30;38.59
13241;BME280;6687;47.790;7.322;2023-04-24T13:19:39;98602.97;;;19.26;38.50
13241;BME280;6687;47.790;7.322;2023-04-24T13:22:07;98606.34;;;19.52;38.56
13241;BME280;6687;47.790;7.322;2023-04-24T13:24:33;98600.56;;;19.64;38.44
13241;BME280;6687;47.790;7.322;2023-04-24T13:27:00;98594.19;;;20.33;39.25
13241;BME280;6687;47.790;7.322;2023-04-24T13:29:27;98596.69;;;19.75;40.05
13241;BME280;6687;47.790;7.322;2023-04-24T13:31:56;98589.59;;;19.97;39.04
13241;BME280;6687;47.790;7.322;2023-04-24T13:34:23;98592.97;;;20.01;41.52
13241;BME280;6687;47.790;7.322;2023-04-24T13:36:50;98592.63;;;20.29;42.30
13241;BME280;6687;47.790;7.322;2023-04-24T13:39:17;98581.03;;;20.54;39.66
13241;BME280;6687;47.790;7.322;2023-04-24T13:41:44;98591.91;;;19.84;40.03
13241;BME280;6687;47.790;7.322;2023-04-24T13:44:13;98565.06;;;20.38;39.86
13241;BME280;6687;47.790;7.322;2023-04-24T13:46:40;98574.69;;;19.11;38.75
13241;BME280;6687;47.790;7.322;2023-04-24T13:49:08;98565.66;;;20.24;39.11
13241;BME280;6687;47.790;7.322;2023-04-24T13:51:35;98562.50;;;20.36;37.85
13241;BME280;6687;47.790;7.322;2023-04-24T13:54:01;98558.94;;;20.17;37.14
13241;BME280;6687;47.790;7.322;2023-04-24T13:56:28;98563.31;;;20.18;40.38
13241;BME280;6687;47.790;7.322;2023-04-24T13:58:56;98556.25;;;20.58;39.14
13241;BME280;6687;47.790;7.322;2023-04-24T14:01:23;98556.56;;;20.31;40.29
13241;BME280;6687;47.790;7.322;2023-04-24T14:03:50;98541.34;;;21.15;40.55
13241;BME280;6687;47.790;7.322;2023-04-24T14:06:18;98534.81;;;20.86;41.94
13241;BME280;6687;47.790;7.322;2023-04-24T14:08:45;98545.84;;;20.55;37.54
13241;BME280;6687;47.790;7.322;2023-04-24T14:11:12;98549.75;;;20.06;39.33
13241;BME280;6687;47.790;7.322;2023-04-24T14:13:41;98537.13;;;20.15;38.53
13241;BME280;6687;47.790;7.322;2023-04-24T14:16:08;98548.84;;;19.87;38.67
13241;BME280;6687;47.790;7.322;2023-04-24T14:18:35;98544.88;;;19.97;41.69
13241;BME280;6687;47.790;7.322;2023-04-24T14:21:01;98546.06;;;18.81;38.69
13241;BME280;6687;47.790;7.322;2023-04-24T14:23:29;98532.47;;;18.70;38.24
13241;BME280;6687;47.790;7.322;2023-04-24T14:25:56;98533.69;;;18.61;38.92
13241;BME280;6687;47.790;7.322;2023-04-24T14:28:23;98542.41;;;18.38;38.54
13241;BME280;6687;47.790;7.322;2023-04-24T14:30:50;98521.06;;;18.71;38.22
13241;BME280;6687;47.790;7.322;2023-04-24T14:33:17;98536.72;;;18.51;38.40
13241;BME280;6687;47.790;7.322;2023-04-24T14:35:44;98532.56;;;19.14;39.36
13241;BME280;6687;47.790;7.322;2023-04-24T14:38:11;98534.63;;;19.06;39.68
13241;BME280;6687;47.790;7.322;2023-04-24T14:40:39;98531.09;;;18.60;38.88
13241;BME280;6687;47.790;7.322;2023-04-24T14:43:06;98530.31;;;18.81;39.67
13241;BME280;6687;47.790;7.322;2023-04-24T14:45:33;98532.66;;;18.65;38.43
13241;BME280;6687;47.790;7.322;2023-04-24T14:48:00;98530.22;;;19.28;39.06
13241;BME280;6687;47.790;7.322;2023-04-24T14:50:26;98531.41;;;19.20;43.09
13241;BME280;6687;47.790;7.322;2023-04-24T14:52:54;98531.38;;;18.05;38.94
13241;BME280;6687;47.790;7.322;2023-04-24T14:55:22;98528.63;;;17.83;39.74
13241;BME280;6687;47.790;7.322;2023-04-24T14:57:50;98532.22;;;18.05;39.76
13241;BME280;6687;47.790;7.322;2023-04-24T15:00:18;98531.66;;;18.68;40.39
13241;BME280;6687;47.790;7.322;2023-04-24T15:02:45;98528.84;;;17.50;40.51
13241;BME280;6687;47.790;7.322;2023-04-24T15:05:12;98529.50;;;18.56;42.76
13241;BME280;6687;47.790;7.322;2023-04-24T15:07:39;98529.56;;;17.55;42.18
13241;BME280;6687;47.790;7.322;2023-04-24T15:10:07;98531.63;;;17.97;42.61
13241;BME280;6687;47.790;7.322;2023-04-24T15:12:34;98545.69;;;17.43;41.48
13241;BME280;6687;47.790;7.322;2023-04-24T15:15:03;98546.47;;;17.72;42.11
13241;BME280;6687;47.790;7.322;2023-04-24T15:17:29;98535.28;;;17.93;42.20
13241;BME280;6687;47.790;7.322;2023-04-24T15:19:56;98546.19;;;17.53;41.99
13241;BME280;6687;47.790;7.322;2023-04-24T15:22:23;98539.59;;;17.14;42.55
13241;BME280;6687;47.790;7.322;2023-04-24T15:24:50;98540.25;;;18.01;45.50
13241;BME280;6687;47.790;7.322;2023-04-24T15:27:16;98538.03;;;17.88;42.60
13241;BME280;6687;47.790;7.322;2023-04-24T15:29:43;98539.00;;;17.33;41.38
13241;BME280;6687;47.790;7.322;2023-04-24T15:32:11;98535.28;;;17.93;41.74
13241;BME280;6687;47.790;7.322;2023-04-24T15:34:38;98531.94;;;17.88;43.08
13241;BME280;6687;47.790;7.322;2023-04-24T15:37:05;98522.22;;;18.17;44.21
13241;BME280;6687;47.790;7.322;2023-04-24T15:39:32;98522.44;;;18.34;43.29
13241;BME280;6687;47.790;7.322;2023-04-24T15:41:59;98520.81;;;17.81;41.19
13241;BME280;6687;47.790;7.322;2023-04-24T15:44:25;98511.63;;;17.95;43.75
13241;BME280;6687;47.790;7.322;2023-04-24T15:46:52;98518.63;;;17.94;42.35
13241;BME280;6687;47.790;7.322;2023-04-24T15:49:20;98509.88;;;17.95;39.31
13241;BME280;6687;47.790;7.322;2023-04-24T15:51:47;98508.66;;;18.53;38.40
13241;BME280;6687;47.790;7.322;2023-04-24T15:54:14;98510.91;;;18.85;38.89
13241;BME280;6687;47.790;7.322;2023-04-24T15:56:40;98508.22;;;18.63;37.94
13241;BME280;6687;47.790;7.322;2023-04-24T15:59:08;98515.88;;;18.93;38.40
13241;BME280;6687;47.790;7.322;2023-04-24T16:01:35;98518.53;;;18.68;37.99
13241;BME280;6687;47.790;7.322;2023-04-24T16:04:02;98523.69;;;18.95;38.57
13241;BME280;6687;47.790;7.322;2023-04-24T16:06:30;98524.66;;;17.96;40.98
13241;BME280;6687;47.790;7.322;2023-04-24T16:08:57;98523.91;;;18.65;39.15
13241;BME280;6687;47.790;7.322;2023-04-24T16:11:24;98527.09;;;18.26;39.27
13241;BME280;6687;47.790;7.322;2023-04-24T16:13:50;98530.25;;;18.36;38.93
13241;BME280;6687;47.790;7.322;2023-04-24T16:16:17;98531.81;;;18.16;38.88
13241;BME280;6687;47.790;7.322;2023-04-24T16:18:44;98521.59;;;17.85;39.98
13241;BME280;6687;47.790;7.322;2023-04-24T16:21:11;98526.63;;;17.91;38.96
13241;BME280;6687;47.790;7.322;2023-04-24T16:23:40;98527.47;;;18.17;38.38
13241;BME280;6687;47.790;7.322;2023-04-24T16:26:07;98529.31;;;17.88;38.33
13241;BME280;6687;47.790;7.322;2023-04-24T16:28:34;98525.72;;;17.65;39.64
13241;BME280;6687;47.790;7.322;2023-04-24T16:31:00;98531.94;;;17.35;38.88
13241;BME280;6687;47.790;7.322;2023-04-24T16:33:27;98535.00;;;17.49;38.84
13241;BME280;6687;47.790;7.322;2023-04-24T16:35:54;98529.88;;;17.44;39.86
13241;BME280;6687;47.790;7.322;2023-04-24T16:38:21;98530.84;;;16.87;39.82
13241;BME280;6687;47.790;7.322;2023-04-24T16:40:50;98527.03;;;17.52;40.17
13241;BME280;6687;47.790;7.322;2023-04-24T16:43:17;98530.88;;;17.94;42.38
13241;BME280;6687;47.790;7.322;2023-04-24T16:45:43;98525.81;;;17.62;40.75
13241;BME280;6687;47.790;7.322;2023-04-24T16:48:10;98526.53;;;17.41;40.16
13241;BME280;6687;47.790;7.322;2023-04-24T16:50:37;98531.38;;;17.78;42.59
13241;BME280;6687;47.790;7.322;2023-04-24T16:53:04;98523.19;;;17.62;40.79
13241;BME280;6687;47.790;7.322;2023-04-24T16:55:30;98514.41;;;17.90;41.54
13241;BME280;6687;47.790;7.322;2023-04-24T16:57:58;98523.13;;;17.10;40.69
13241;BME280;6687;47.790;7.322;2023-04-24T17:00:25;98516.94;;;17.66;41.58
13241;BME280;6687;47.790;7.322;2023-04-24T17:02:52;98517.19;;;18.11;43.65
13241;BME280;6687;47.790;7.322;2023-04-24T17:05:19;98526.06;;;17.28;42.73
13241;BME280;6687;47.790;7.322;2023-04-24T17:07:47;98519.94;;;17.81;43.05
13241;BME280;6687;47.790;7.322;2023-04-24T17:10:14;98520.69;;;17.59;44.85
13241;BME280;6687;47.790;7.322;2023-04-24T17:12:41;98527.81;;;17.54;40.79
13241;BME280;6687;47.790;7.322;2023-04-24T17:15:10;98518.44;;;17.74;42.39
13241;BME280;6687;47.790;7.322;2023-04-24T17:17:37;98510.28;;;17.56;40.89
13241;BME280;6687;47.790;7.322;2023-04-24T17:20:05;98516.63;;;17.76;42.93
13241;BME280;6687;47.790;7.322;2023-04-24T17:22:31;98511.72;;;17.13;39.93
13241;BME280;6687;47.790;7.322;2023-04-24T17:24:58;98511.22;;;17.28;40.64
13241;BME280;6687;47.790;7.322;2023-04-24T17:27:25;98513.69;;;17.33;40.20
13241;BME280;6687;47.790;7.322;2023-04-24T17:29:52;98509.28;;;17.87;40.33
13241;BME280;6687;47.790;7.322;2023-04-24T17:32:20;98522.16;;;17.66;39.91
13241;BME280;6687;47.790;7.322;2023-04-24T17:34:46;98518.13;;;17.03;40.48
13241;BME280;6687;47.790;7.322;2023-04-24T17:37:13;98513.94;;;17.52;40.68
13241;BME280;6687;47.790;7.322;2023-04-24T17:39:40;98514.75;;;17.27;40.62
13241;BME280;6687;47.790;7.322;2023-04-24T17:42:07;98521.91;;;16.64;41.84
13241;BME280;6687;47.790;7.322;2023-04-24T17:44:34;98527.97;;;17.23;42.51
13241;BME280;6687;47.790;7.322;2023-04-24T17:47:01;98526.47;;;16.87;41.57
13241;BME280;6687;47.790;7.322;2023-04-24T17:49:29;98531.41;;;16.97;42.43
13241;BME280;6687;47.790;7.322;2023-04-24T17:51:56;98530.66;;;17.21;42.25
13241;BME280;6687;47.790;7.322;2023-04-24T17:54:23;98523.91;;;17.14;41.34
13241;BME280;6687;47.790;7.322;2023-04-24T17:56:49;98530.19;;;17.08;42.00
13241;BME280;6687;47.790;7.322;2023-04-24T17:59:17;98525.31;;;17.24;46.74
13241;BME280;6687;47.790;7.322;2023-04-24T18:01:44;98523.31;;;17.04;45.95
13241;BME280;6687;47.790;7.322;2023-04-24T18:04:11;98532.06;;;16.75;42.64
13241;BME280;6687;47.790;7.322;2023-04-24T18:06:39;98532.06;;;16.45;43.75
13241;BME280;6687;47.790;7.322;2023-04-24T18:09:06;98527.38;;;15.94;42.41
13241;BME280;6687;47.790;7.322;2023-04-24T18:11:33;98527.81;;;16.41;43.15
13241;BME280;6687;47.790;7.322;2023-04-24T18:14:00;98526.53;;;16.25;45.09
13241;BME280;6687;47.790;7.322;2023-04-24T18:16:27;98535.88;;;16.02;44.23
13241;BME280;6687;47.790;7.322;2023-04-24T18:18:54;98534.19;;;15.65;45.01
13241;BME280;6687;47.790;7.322;2023-04-24T18:21:20;98538.31;;;15.40;44.20
13241;BME280;6687;47.790;7.322;2023-04-24T18:23:49;98538.69;;;15.60;45.67
13241;BME280;6687;47.790;7.322;2023-04-24T18:26:16;98541.94;;;15.68;46.84
13241;BME280;6687;47.790;7.322;2023-04-24T18:28:43;98544.22;;;15.48;44.08
13241;BME280;6687;47.790;7.322;2023-04-24T18:31:09;98554.25;;;15.27;46.49
13241;BME280;6687;47.790;7.322;2023-04-24T18:33:36;98544.28;;;15.45;45.50
13241;BME280;6687;47.790;7.322;2023-04-24T18:36:03;98558.75;;;15.22;45.01